FDMS/MTS METAR and TAF weather

Enter ICAO airport designator
Station Type Date Time Source
FDMS METAR 2019/07/17 14:00 UTC NOAA

FDMS 171400Z 08007KT CAVOK 26/02 Q1022 NOSIG


Station Type Date Time Source
FDMS Decoded METAR 2019/07/17 14:00 UTC NOAA

Manzini / Matsapa Airport, Swaziland (FDMS) 26-32S 031-18E
Jul 17, 2019 - 10:00 AM EDT / 2019.07.17 1400 UTC
Wind: from the E (080 degrees) at 8 MPH (7 KT):0
Visibility: greater than 7 mile(s):0
Temperature: 78 F (26 C)
Dew Point: 35 F (2 C)
Relative Humidity: 20%
Pressure (altimeter): 30.18 in. Hg (1022 hPa)
ob: FDMS 171400Z 08007KT CAVOK 26/02 Q1022 NOSIG
cycle: 14

Station Type Date Time Source
FDMS TAF 2019/06/03 12:35 UTC NOAA

TAF FDMS 031000Z 0312/0418 12006KT CAVOK

Example: see airport list